createdAt,value
2022-08-21T00:02:18.217Z,14.30
2022-08-21T00:04:48.278Z,15.40
2022-08-21T00:07:25.322Z,13.60
2022-08-21T00:09:52.826Z,14.40
2022-08-21T00:14:47.036Z,16.20
2022-08-21T00:22:08.328Z,13.70
2022-08-21T00:29:29.521Z,15.20
2022-08-21T00:31:56.216Z,13.90
2022-08-21T00:34:22.959Z,13.40
2022-08-21T00:36:49.700Z,13.80
2022-08-21T00:41:43.966Z,14.60
2022-08-21T00:44:13.840Z,14.60
2022-08-21T00:46:42.769Z,13.70
2022-08-21T00:49:12.752Z,14.80
2022-08-21T00:51:53.089Z,13.30
2022-08-21T00:54:23.419Z,14.50
2022-08-21T00:56:54.284Z,14.10
2022-08-21T00:59:23.060Z,14.70
2022-08-21T01:01:50.811Z,13.00
2022-08-21T01:04:17.931Z,15.90
2022-08-21T01:06:47.408Z,14.60
2022-08-21T01:09:14.911Z,14.40
2022-08-21T01:11:43.878Z,15.80
2022-08-21T01:14:13.092Z,13.20
2022-08-21T01:16:43.822Z,13.20
2022-08-21T01:19:11.885Z,13.20
2022-08-21T01:21:39.095Z,13.40
2022-08-21T01:24:06.866Z,13.30
2022-08-21T01:26:36.530Z,13.90
2022-08-21T01:29:06.731Z,13.90
2022-08-21T01:31:35.274Z,14.70
2022-08-21T01:34:02.060Z,15.30
2022-08-21T01:36:29.250Z,14.10
2022-08-21T01:38:56.938Z,14.50
2022-08-21T01:46:18.119Z,14.60
2022-08-21T01:48:44.954Z,14.50
2022-08-21T01:51:12.647Z,14.90
2022-08-21T01:56:12.246Z,14.90
2022-08-21T01:58:41.950Z,16.30
2022-08-21T02:01:10.329Z,16.10
2022-08-21T02:03:37.979Z,14.90
2022-08-21T02:06:06.348Z,16.20
2022-08-21T02:08:33.603Z,13.70
2022-08-21T02:11:01.128Z,13.50
2022-08-21T02:13:27.861Z,16.00
2022-08-21T02:20:55.957Z,15.80
2022-08-21T02:23:26.804Z,15.00
2022-08-21T02:25:55.682Z,13.80
2022-08-21T02:33:17.732Z,14.50
2022-08-21T02:35:46.168Z,15.80
2022-08-21T02:38:16.479Z,14.80
2022-08-21T02:40:48.035Z,15.30
2022-08-21T02:43:16.491Z,14.20
2022-08-21T02:45:45.058Z,14.80
2022-08-21T02:48:15.491Z,14.80
2022-08-21T02:50:55.411Z,14.80
2022-08-21T02:53:22.803Z,16.20
2022-08-21T02:55:51.043Z,14.80
2022-08-21T02:58:23.119Z,14.70
2022-08-21T03:00:50.791Z,15.60
2022-08-21T03:03:17.524Z,15.30
2022-08-21T03:05:44.993Z,14.70
2022-08-21T03:08:13.645Z,14.80
2022-08-21T03:10:46.119Z,14.70
2022-08-21T03:13:13.596Z,15.30
2022-08-21T03:15:40.996Z,14.80
2022-08-21T03:20:36.503Z,14.80
2022-08-21T03:28:13.263Z,13.50
2022-08-21T03:30:49.822Z,14.10
2022-08-21T03:33:16.797Z,13.40
2022-08-21T03:35:53.896Z,14.50
2022-08-21T03:38:25.850Z,15.90
2022-08-21T03:43:21.049Z,15.60
2022-08-21T03:45:47.909Z,15.50
2022-08-21T03:50:44.179Z,13.20
2022-08-21T03:53:17.392Z,13.30
2022-08-21T03:55:50.105Z,15.30
2022-08-21T03:58:19.411Z,14.40
2022-08-21T04:00:49.003Z,15.00
2022-08-21T04:03:16.691Z,14.40
2022-08-21T04:05:43.745Z,14.70
2022-08-21T04:10:40.104Z,14.10
2022-08-21T04:13:08.804Z,14.30
2022-08-21T04:15:35.916Z,12.80
2022-08-21T04:22:57.322Z,15.10
2022-08-21T04:25:26.330Z,14.30
2022-08-21T04:30:20.705Z,14.00
2022-08-21T04:35:19.836Z,14.30
2022-08-21T04:37:46.962Z,14.40
2022-08-21T04:40:16.581Z,15.60
2022-08-21T04:42:47.033Z,12.90
2022-08-21T04:45:20.812Z,12.90
2022-08-21T04:47:53.113Z,12.90
2022-08-21T04:50:25.512Z,15.70
2022-08-21T04:53:06.136Z,14.30
2022-08-21T04:55:33.335Z,13.00
2022-08-21T04:58:01.065Z,14.50
2022-08-21T05:05:30.045Z,15.90
2022-08-21T05:07:59.981Z,14.40
2022-08-21T05:15:21.739Z,13.50
2022-08-21T05:20:22.150Z,13.40
2022-08-21T05:32:38.859Z,15.90
2022-08-21T05:35:07.930Z,13.90
2022-08-21T05:37:35.331Z,14.50
2022-08-21T05:45:41.798Z,14.70
2022-08-21T05:48:22.759Z,14.50
2022-08-21T05:50:51.621Z,15.60
2022-08-21T05:53:20.330Z,14.70
2022-08-21T05:58:17.807Z,15.80
2022-08-21T06:00:46.529Z,15.70
2022-08-21T06:03:20.800Z,17.30
2022-08-21T06:08:17.041Z,16.20
2022-08-21T06:10:44.616Z,16.00
2022-08-21T06:15:40.368Z,16.70
2022-08-21T06:23:02.194Z,17.40
2022-08-21T06:25:30.005Z,19.10
2022-08-21T06:28:09.807Z,19.90
2022-08-21T06:30:37.956Z,21.50
2022-08-21T06:33:04.718Z,20.00
2022-08-21T06:37:58.943Z,21.60
2022-08-21T06:40:27.543Z,22.60
2022-08-21T06:42:58.603Z,23.20
2022-08-21T06:45:26.180Z,23.60
2022-08-21T06:47:55.051Z,23.60
2022-08-21T06:50:21.753Z,24.70
2022-08-21T06:55:22.410Z,25.20
2022-08-21T07:00:19.761Z,25.00
2022-08-21T07:02:46.448Z,25.70
2022-08-21T07:05:18.267Z,25.70
2022-08-21T07:07:46.498Z,25.50
2022-08-21T07:12:50.765Z,26.70
2022-08-21T07:15:19.599Z,27.90
2022-08-21T07:17:46.437Z,27.30
2022-08-21T07:20:13.821Z,27.60
2022-08-21T07:22:41.747Z,27.70
2022-08-21T07:25:09.412Z,27.50
2022-08-21T07:27:36.212Z,27.80
2022-08-21T07:30:04.268Z,28.70
2022-08-21T07:32:31.000Z,28.70
2022-08-21T07:34:57.766Z,29.10
2022-08-21T07:37:24.681Z,29.50
2022-08-21T07:39:52.407Z,29.80
2022-08-21T07:42:19.144Z,30.40
2022-08-21T07:44:45.864Z,30.90
2022-08-21T07:47:12.828Z,30.00
2022-08-21T07:54:34.686Z,30.90
2022-08-21T07:57:02.178Z,30.50
2022-08-21T07:59:29.423Z,31.10
2022-08-21T08:04:26.478Z,30.90
2022-08-21T08:06:53.728Z,30.10
2022-08-21T08:09:20.706Z,30.50
2022-08-21T08:11:47.394Z,31.70
2022-08-21T08:14:14.161Z,31.60
2022-08-21T08:16:40.841Z,31.60
2022-08-21T08:19:07.594Z,31.60
2022-08-21T08:21:35.106Z,32.90
2022-08-21T08:24:18.441Z,31.70
2022-08-21T08:26:46.776Z,32.50
2022-08-21T08:29:20.930Z,32.10
2022-08-21T08:39:26.594Z,33.30
2022-08-21T08:42:33.365Z,32.10
2022-08-21T08:45:09.058Z,31.50
2022-08-21T08:47:39.244Z,30.20
2022-08-21T08:50:11.741Z,30.60
2022-08-21T08:52:47.225Z,30.30
2022-08-21T08:55:17.170Z,31.10
2022-08-21T08:57:49.894Z,31.90
2022-08-21T09:00:21.246Z,31.80
2022-08-21T09:02:49.733Z,33.30
2022-08-21T09:05:45.925Z,34.90
2022-08-21T09:08:21.449Z,34.80
2022-08-21T09:11:11.272Z,37.20
2022-08-21T09:14:01.832Z,36.90
2022-08-21T09:16:40.451Z,36.40
2022-08-21T09:19:33.522Z,36.40
2022-08-21T09:22:08.929Z,36.30
2022-08-21T09:24:56.286Z,37.30
2022-08-21T09:27:23.233Z,36.20
2022-08-21T09:29:53.079Z,36.90
2022-08-21T09:32:37.078Z,36.60
2022-08-21T09:35:07.561Z,36.20
2022-08-21T09:37:47.627Z,34.50
2022-08-21T09:40:44.701Z,32.50
2022-08-21T09:43:20.295Z,31.60
2022-08-21T09:45:49.478Z,30.90
2022-08-21T09:48:26.950Z,30.50
2022-08-21T09:51:16.760Z,29.60
2022-08-21T09:53:48.664Z,29.10
2022-08-21T09:56:42.620Z,27.90
2022-08-21T09:59:18.887Z,26.90
2022-08-21T10:01:51.178Z,27.70
2022-08-21T10:04:23.543Z,29.60
2022-08-21T10:06:50.627Z,30.30
2022-08-21T10:09:21.623Z,29.70
2022-08-21T10:12:11.025Z,28.50
2022-08-21T10:14:47.067Z,29.10
2022-08-21T10:17:21.615Z,29.10
2022-08-21T10:20:03.120Z,29.00
2022-08-21T10:22:47.199Z,29.10
2022-08-21T10:25:50.265Z,29.40
2022-08-21T10:28:36.285Z,28.40
2022-08-21T10:31:40.588Z,29.70
2022-08-21T10:34:38.432Z,29.60
2022-08-21T10:37:19.491Z,30.20
2022-08-21T10:39:55.336Z,30.90
2022-08-21T10:42:28.552Z,32.50
2022-08-21T10:45:14.804Z,32.00
2022-08-21T10:48:16.870Z,32.20
2022-08-21T10:50:56.606Z,33.70
2022-08-21T10:53:42.484Z,31.80
2022-08-21T10:56:21.753Z,32.10
2022-08-21T10:59:26.714Z,29.90
2022-08-21T11:01:59.289Z,29.00
2022-08-21T11:04:49.230Z,28.50
2022-08-21T11:07:30.200Z,27.50
2022-08-21T11:10:16.058Z,28.80
2022-08-21T11:13:01.543Z,29.60
2022-08-21T11:18:24.601Z,27.50
2022-08-21T11:21:20.821Z,28.00
2022-08-21T11:24:05.655Z,28.30
2022-08-21T11:26:51.251Z,29.40
2022-08-21T11:29:35.352Z,30.80
2022-08-21T11:32:15.181Z,32.90
2022-08-21T11:35:00.746Z,34.50
2022-08-21T11:37:48.942Z,33.90
2022-08-21T11:40:45.387Z,34.40
2022-08-21T11:43:33.207Z,33.50
2022-08-21T11:46:25.872Z,33.30
2022-08-21T11:48:55.331Z,33.20
2022-08-21T11:51:33.816Z,34.20
2022-08-21T11:54:25.261Z,36.60
2022-08-21T11:57:01.236Z,36.40
2022-08-21T11:59:41.549Z,37.60
2022-08-21T12:02:15.803Z,39.90
2022-08-21T12:04:54.020Z,39.50
2022-08-21T12:07:42.464Z,39.00
2022-08-21T12:10:15.769Z,39.90
2022-08-21T12:12:45.059Z,39.90
2022-08-21T12:15:20.891Z,41.00
2022-08-21T12:18:01.538Z,42.70
2022-08-21T12:20:45.161Z,39.40
2022-08-21T12:23:29.461Z,40.40
2022-08-21T12:26:30.640Z,40.00
2022-08-21T12:29:21.580Z,39.30
2022-08-21T12:32:01.022Z,37.80
2022-08-21T12:34:37.498Z,36.00
2022-08-21T12:37:18.634Z,34.90
2022-08-21T12:39:48.706Z,34.70
2022-08-21T12:42:34.601Z,35.00
2022-08-21T12:45:11.197Z,34.40
2022-08-21T12:47:51.962Z,33.30
2022-08-21T12:50:25.608Z,34.10
2022-08-21T12:53:05.172Z,34.00
2022-08-21T12:55:45.363Z,32.30
2022-08-21T12:58:25.592Z,32.40
2022-08-21T13:00:56.825Z,33.40
2022-08-21T13:03:24.376Z,34.40
2022-08-21T13:05:52.832Z,32.70
2022-08-21T13:08:21.896Z,32.70
2022-08-21T13:10:57.237Z,32.40
2022-08-21T13:13:28.319Z,33.10
2022-08-21T13:16:05.517Z,32.20
2022-08-21T13:18:35.907Z,33.10
2022-08-21T13:21:11.884Z,33.20
2022-08-21T13:23:39.824Z,31.50
2022-08-21T13:26:18.936Z,32.90
2022-08-21T13:28:48.290Z,32.60
2022-08-21T13:31:20.717Z,34.10
2022-08-21T13:33:49.439Z,31.10
2022-08-21T13:36:27.611Z,31.10
2022-08-21T13:38:55.744Z,32.10
2022-08-21T13:41:28.253Z,31.30
2022-08-21T13:44:04.520Z,31.30
2022-08-21T13:46:35.438Z,33.10
2022-08-21T13:49:04.040Z,32.80
2022-08-21T13:51:32.212Z,31.70
2022-08-21T13:53:59.592Z,32.50
2022-08-21T13:56:33.665Z,30.60
2022-08-21T13:59:02.621Z,33.10
2022-08-21T14:01:35.392Z,32.00
2022-08-21T14:04:20.300Z,31.80
2022-08-21T14:06:47.237Z,30.50
2022-08-21T14:09:27.928Z,31.00
2022-08-21T14:11:57.112Z,30.00
2022-08-21T14:14:31.627Z,30.70
2022-08-21T14:17:23.328Z,30.00
2022-08-21T14:19:51.399Z,31.60
2022-08-21T14:22:33.470Z,30.20
2022-08-21T14:25:06.609Z,28.50
2022-08-21T14:27:35.976Z,29.20
2022-08-21T14:30:10.798Z,29.90
2022-08-21T14:32:44.894Z,28.60
2022-08-21T14:35:13.473Z,28.60
2022-08-21T14:37:43.589Z,28.30
2022-08-21T14:40:12.070Z,29.10
2022-08-21T14:42:43.183Z,27.90
2022-08-21T14:45:27.896Z,28.40
2022-08-21T14:47:55.619Z,28.10
2022-08-21T14:50:22.792Z,29.90
2022-08-21T14:55:19.020Z,28.60
2022-08-21T14:57:51.752Z,27.60
2022-08-21T15:00:23.848Z,27.20
2022-08-21T15:03:01.272Z,27.60
2022-08-21T15:05:32.865Z,27.30
2022-08-21T15:10:27.504Z,27.60
2022-08-21T15:20:15.680Z,29.50
2022-08-21T15:27:49.660Z,27.00
2022-08-21T15:30:16.556Z,27.50
2022-08-21T15:35:10.704Z,28.30
2022-08-21T15:40:07.192Z,28.50
2022-08-21T15:42:34.874Z,26.50
2022-08-21T15:45:02.040Z,26.40
2022-08-21T15:47:32.900Z,26.70
2022-08-21T15:49:59.784Z,25.70
2022-08-21T15:54:54.129Z,26.90
2022-08-21T15:57:23.306Z,24.20
2022-08-21T15:59:58.580Z,28.00
2022-08-21T16:02:31.474Z,27.00
2022-08-21T16:04:59.208Z,26.10
2022-08-21T16:09:53.731Z,25.70
2022-08-21T16:12:31.734Z,26.70
2022-08-21T16:15:00.441Z,26.80
2022-08-21T16:17:33.503Z,25.90
2022-08-21T16:20:02.334Z,26.70
2022-08-21T16:25:12.303Z,25.10
2022-08-21T16:27:40.370Z,26.20
2022-08-21T16:30:07.967Z,27.60
2022-08-21T16:32:35.369Z,27.80
2022-08-21T16:35:03.613Z,25.90
2022-08-21T16:39:57.989Z,25.20
2022-08-21T16:42:26.652Z,25.80
2022-08-21T16:44:55.216Z,25.00
2022-08-21T16:49:54.855Z,25.30
2022-08-21T16:52:21.560Z,26.90
2022-08-21T16:54:48.271Z,27.00
2022-08-21T16:57:15.159Z,27.50
2022-08-21T17:02:29.735Z,25.20
2022-08-21T17:09:53.152Z,27.10
2022-08-21T17:12:20.098Z,25.10
2022-08-21T17:14:47.974Z,24.80
2022-08-21T17:17:14.949Z,24.30
2022-08-21T17:19:42.246Z,25.90
2022-08-21T17:22:09.827Z,25.30
2022-08-21T17:24:37.334Z,24.40
2022-08-21T17:27:05.582Z,23.80
2022-08-21T17:29:37.026Z,25.10
2022-08-21T17:32:07.996Z,26.40
2022-08-21T17:37:01.752Z,24.20
2022-08-21T17:39:28.506Z,26.00
2022-08-21T17:41:58.207Z,24.00
2022-08-21T17:49:20.500Z,25.70
2022-08-21T17:56:43.028Z,24.00
2022-08-21T17:59:11.384Z,22.70
2022-08-21T18:01:42.492Z,22.70
2022-08-21T18:04:11.115Z,23.90
2022-08-21T18:06:37.995Z,22.50
2022-08-21T18:09:05.739Z,24.90
2022-08-21T18:11:32.731Z,24.50
2022-08-21T18:14:07.149Z,24.80
2022-08-21T18:16:37.741Z,22.70
2022-08-21T18:19:09.008Z,22.60
2022-08-21T18:24:03.734Z,23.30
2022-08-21T18:26:38.355Z,22.70
2022-08-21T18:29:07.653Z,21.80
2022-08-21T18:31:37.243Z,21.60
2022-08-21T18:34:11.337Z,22.80
2022-08-21T18:36:39.136Z,24.00
2022-08-21T18:39:34.403Z,23.80
2022-08-21T18:41:54.634Z,21.10
2022-08-21T18:44:23.326Z,21.40
2022-08-21T18:46:56.071Z,22.30
2022-08-21T18:49:22.731Z,21.10
2022-08-21T18:54:17.670Z,23.60
2022-08-21T18:56:45.007Z,21.90
2022-08-21T18:59:13.743Z,22.90
2022-08-21T19:01:42.512Z,20.60
2022-08-21T19:04:21.304Z,21.70
2022-08-21T19:06:56.767Z,20.30
2022-08-21T19:09:23.395Z,21.10
2022-08-21T19:14:37.210Z,20.30
2022-08-21T19:21:59.801Z,19.80
2022-08-21T19:26:55.751Z,22.60
2022-08-21T19:32:05.688Z,19.60
2022-08-21T19:34:35.331Z,20.80
2022-08-21T19:37:02.357Z,19.40
2022-08-21T19:41:59.419Z,19.30
2022-08-21T19:44:29.394Z,20.70
2022-08-21T19:46:57.839Z,21.10
2022-08-21T19:49:28.735Z,20.50
2022-08-21T19:54:32.922Z,20.50
2022-08-21T19:57:06.602Z,20.40
2022-08-21T19:59:35.392Z,20.40
2022-08-21T20:02:02.548Z,19.00
2022-08-21T20:06:56.437Z,19.50
2022-08-21T20:11:56.285Z,21.70
2022-08-21T20:14:26.570Z,20.80
2022-08-21T20:17:08.126Z,21.50
2022-08-21T20:19:38.841Z,19.90
2022-08-21T20:22:06.513Z,21.30
2022-08-21T20:34:45.830Z,21.00
2022-08-21T20:37:22.366Z,19.90
2022-08-21T20:42:57.585Z,19.30
2022-08-21T20:45:31.051Z,19.60
2022-08-21T20:48:28.586Z,20.90
2022-08-21T20:51:21.842Z,19.90
2022-08-21T20:54:21.897Z,18.70
2022-08-21T20:57:04.665Z,18.40
2022-08-21T20:59:49.994Z,18.70
2022-08-21T21:04:51.507Z,19.60
2022-08-21T21:07:47.320Z,21.10
2022-08-21T21:10:34.087Z,18.20
2022-08-21T21:13:22.931Z,19.70
2022-08-21T21:15:54.799Z,19.40
2022-08-21T21:18:42.521Z,18.50
2022-08-21T21:21:51.701Z,18.30
2022-08-21T21:26:57.157Z,19.30
2022-08-21T21:29:29.889Z,18.60
2022-08-21T21:31:57.065Z,20.80
2022-08-21T21:34:26.674Z,18.20
2022-08-21T21:37:14.475Z,20.10
2022-08-21T21:39:50.143Z,20.50
2022-08-21T21:45:08.861Z,19.30
2022-08-21T21:47:41.323Z,19.60
2022-08-21T21:50:26.481Z,18.30
2022-08-21T21:55:46.551Z,20.00
2022-08-21T21:58:37.387Z,19.20
2022-08-21T22:01:18.859Z,19.90
2022-08-21T22:03:59.527Z,19.20
2022-08-21T22:06:52.556Z,18.60
2022-08-21T22:09:45.589Z,18.10
2022-08-21T22:12:24.401Z,17.60
2022-08-21T22:17:37.720Z,20.60
2022-08-21T22:20:15.528Z,20.50
2022-08-21T22:22:43.841Z,19.10
2022-08-21T22:25:20.940Z,19.40
2022-08-21T22:27:51.508Z,19.10
2022-08-21T22:30:41.674Z,18.50
2022-08-21T22:33:19.979Z,18.90
2022-08-21T22:35:51.725Z,20.40
2022-08-21T22:38:39.471Z,19.00
2022-08-21T22:41:19.392Z,20.20
2022-08-21T22:43:54.819Z,17.80
2022-08-21T22:46:50.089Z,17.90
2022-08-21T22:49:38.747Z,17.60
2022-08-21T22:52:24.971Z,20.00
2022-08-21T22:54:58.288Z,19.00
2022-08-21T22:57:34.998Z,19.50
2022-08-21T23:00:33.860Z,17.40
2022-08-21T23:03:02.960Z,18.60
2022-08-21T23:08:39.077Z,18.40
2022-08-21T23:11:20.897Z,17.50
2022-08-21T23:13:52.352Z,17.70
2022-08-21T23:16:47.117Z,19.00
2022-08-21T23:19:44.560Z,18.90
2022-08-21T23:22:36.158Z,18.90
2022-08-21T23:25:12.567Z,18.80
2022-08-21T23:28:03.840Z,18.80
2022-08-21T23:30:41.815Z,20.30
2022-08-21T23:33:15.631Z,17.50
2022-08-21T23:36:04.120Z,18.90
2022-08-21T23:38:55.600Z,20.30
2022-08-21T23:42:05.843Z,17.30
2022-08-21T23:47:22.852Z,18.70
2022-08-21T23:49:54.175Z,18.70
2022-08-21T23:52:49.491Z,18.70
2022-08-21T23:55:41.458Z,17.50
